Iwanui, Waitara Historical Data
 
Daily Summary for November 20, 2018 Units:  Metric    English   Both
« Previous Day
Next Day »
Daily Weekly Monthly Yearly Custom
  Current: High: Low: Average:
Temperature: 3.7 °C 6.5 °C 3.7 °C 5 °C
Dew Point: 1.7 °C 3.3 °C 1.6 °C 2.3 °C
Humidity: 87% 87% 75% 82%
Wind Speed: 1.1km/h 7.2km/h 0.0km/h 1.5km/h
Wind Gust: 3.5km/h 11.1km/h - -
WindSSE - - South
Pressure: 1002.5 hPa 1003.9 hPa 1002.4 hPa -
Precipitation: 0.0 mm      
Historical Graphs
 
 
Tabular Data for November 20, 2018
Time Temperature Dew Point Pressure Wind Wind Speed Wind Gust Humidity Rainfall Rate (Hourly)
00:04 6.0 °C 1.9 °C 1003.8 hPa Calm   2.6 km/h 75% 0.0 mm
00:09 6.0 °C 1.9 °C 1003.7 hPa Calm   2.6 km/h 75% 0.0 mm
00:14 5.9 °C 2.0 °C 1003.9 hPa Calm   2.6 km/h 76% 0.0 mm
00:19 5.8 °C 1.9 °C 1003.8 hPa South 2.6 km/h 3.5 km/h 76% 0.0 mm
00:24 5.9 °C 2.2 °C 1003.7 hPa South 1.1 km/h 3.5 km/h 77% 0.0 mm
00:29 6.1 °C 2.4 °C 1003.7 hPa South 3.5 km/h 9.7 km/h 77% 0.0 mm
00:34 6.2 °C 2.8 °C 1003.7 hPa South 5.0 km/h 9.7 km/h 79% 0.0 mm
00:39 6.4 °C 3.0 °C 1003.7 hPa South 7.2 km/h 11.1 km/h 79% 0.0 mm
00:44 6.5 °C 3.3 °C 1003.7 hPa South 3.5 km/h 11.1 km/h 80% 0.0 mm
00:49 6.5 °C 3.3 °C 1003.7 hPa SSE 3.5 km/h 11.1 km/h 80% 0.0 mm
00:54 6.4 °C 3.2 °C 1003.6 hPa SSE 3.5 km/h 6.1 km/h 80% 0.0 mm
00:59 6.2 °C 3.0 °C 1003.5 hPa SSE 2.6 km/h 6.1 km/h 80% 0.0 mm
01:04 6.2 °C 3.0 °C 1003.5 hPa SSE 3.5 km/h 7.2 km/h 80% 0.0 mm
01:09 6.2 °C 3.0 °C 1003.6 hPa SSE 3.5 km/h 7.2 km/h 80% 0.0 mm
01:14 6.2 °C 3.0 °C 1003.5 hPa SSE 2.6 km/h 7.2 km/h 80% 0.0 mm
01:19 6.2 °C 3.0 °C 1003.5 hPa SSE 1.1 km/h 7.2 km/h 80% 0.0 mm
01:24 6.1 °C 2.9 °C 1003.4 hPa SSE 2.6 km/h 6.1 km/h 80% 0.0 mm
01:29 5.9 °C 2.9 °C 1003.5 hPa SSE 1.1 km/h 6.1 km/h 81% 0.0 mm
01:34 5.9 °C 2.9 °C 1003.5 hPa South 2.6 km/h 5.0 km/h 81% 0.0 mm
01:39 5.9 °C 2.9 °C 1003.5 hPa South 3.5 km/h 6.1 km/h 81% 0.0 mm
01:44 5.9 °C 2.9 °C 1003.4 hPa SSE 2.6 km/h 6.1 km/h 81% 0.0 mm
01:49 5.8 °C 2.9 °C 1003.4 hPa Calm   6.1 km/h 82% 0.0 mm
01:54 5.6 °C 2.6 °C 1003.2 hPa Calm   3.5 km/h 81% 0.0 mm
01:59 5.4 °C 2.4 °C 1003.2 hPa Calm   1.1 km/h 81% 0.0 mm
02:04 5.3 °C 2.3 °C 1003.2 hPa SSW 1.1 km/h 2.6 km/h 81% 0.0 mm
02:09 5.2 °C 2.2 °C 1003.1 hPa Calm   3.5 km/h 81% 0.0 mm
02:14 5.1 °C 2.1 °C 1003.2 hPa Calm   3.5 km/h 81% 0.0 mm
02:19 4.9 °C 2.1 °C 1003.1 hPa South 1.1 km/h 2.6 km/h 82% 0.0 mm
02:24 4.9 °C 2.1 °C 1003.2 hPa South 1.1 km/h 3.5 km/h 82% 0.0 mm
02:29 4.9 °C 2.1 °C 1003.1 hPa South 2.6 km/h 6.1 km/h 82% 0.0 mm
02:34 5.0 °C 2.2 °C 1003.1 hPa South 2.6 km/h 7.2 km/h 82% 0.0 mm
02:39 5.0 °C 2.2 °C 1003.1 hPa Calm   7.2 km/h 82% 0.0 mm
02:44 4.9 °C 2.3 °C 1003.1 hPa SSE 5.0 km/h 8.7 km/h 83% 0.0 mm
02:49 4.9 °C 2.3 °C 1003.1 hPa SSE 2.6 km/h 8.7 km/h 83% 0.0 mm
02:54 5.0 °C 2.3 °C 1003.0 hPa SSE 3.5 km/h 8.7 km/h 83% 0.0 mm
02:59 5.0 °C 2.3 °C 1003.1 hPa SSE 2.6 km/h 6.1 km/h 83% 0.0 mm
03:04 4.9 °C 2.4 °C 1003.0 hPa SSE 1.1 km/h 5.0 km/h 84% 0.0 mm
03:09 4.7 °C 2.4 °C 1003.1 hPa Calm   5.0 km/h 85% 0.0 mm
03:14 4.5 °C 2.2 °C 1003.1 hPa Calm   2.6 km/h 85% 0.0 mm
03:19 4.4 °C 2.1 °C 1003.1 hPa Calm   1.1 km/h 85% 0.0 mm
03:24 4.2 °C 1.9 °C 1002.9 hPa Calm   1.1 km/h 85% 0.0 mm
03:29 4.1 °C 1.8 °C 1002.9 hPa Calm   2.6 km/h 85% 0.0 mm
03:34 4.0 °C 1.7 °C 1002.8 hPa Calm   2.6 km/h 85% 0.0 mm
03:39 3.9 °C 1.8 °C 1002.9 hPa Calm   2.6 km/h 86% 0.0 mm
03:44 3.9 °C 1.8 °C 1002.8 hPa SE 2.6 km/h 3.5 km/h 86% 0.0 mm
03:49 4.0 °C 1.7 °C 1002.7 hPa Calm   3.5 km/h 85% 0.0 mm
03:54 4.1 °C 1.8 °C 1002.7 hPa Calm   3.5 km/h 85% 0.0 mm
03:59 4.1 °C 1.8 °C 1002.7 hPa Calm   3.5 km/h 85% 0.0 mm
04:04 4.0 °C 1.7 °C 1002.6 hPa Calm   1.1 km/h 85% 0.0 mm
04:09 3.9 °C 1.8 °C 1002.5 hPa Calm   2.6 km/h 86% 0.0 mm
04:15 3.8 °C 1.7 °C 1002.5 hPa Calm   2.6 km/h 86% 0.0 mm
04:19 3.7 °C 1.6 °C 1002.6 hPa SSW 1.1 km/h 3.5 km/h 86% 0.0 mm
04:24 3.7 °C 1.6 °C 1002.6 hPa South 1.1 km/h 3.5 km/h 86% 0.0 mm
04:29 3.8 °C 1.8 °C 1002.6 hPa South 1.1 km/h 5.0 km/h 87% 0.0 mm
04:34 3.8 °C 1.8 °C 1002.6 hPa South 1.1 km/h 5.0 km/h 87% 0.0 mm
04:39 3.8 °C 1.8 °C 1002.6 hPa SSE 1.1 km/h 3.5 km/h 87% 0.0 mm
04:44 3.8 °C 1.8 °C 1002.6 hPa Calm   3.5 km/h 87% 0.0 mm
04:49 3.7 °C 1.7 °C 1002.4 hPa Calm   3.5 km/h 87% 0.0 mm
04:54 3.7 °C 1.7 °C 1002.5 hPa SSE 1.1 km/h 3.5 km/h 87% 0.0 mm
Waitara, Taranaki. New Zealand Historic Data
Compliments of Weather Underground - 2 mb